Enunciados de questões e informações de concursos

Polícia Civil do Estado do Rio de Janeiro
Questão 1 de 1
Assunto: Sem classificação
Analise o TAF e as afirmativas a seguir.

TAF SBGL 080740Z 0812/0918 09015KT 4500 TSRA SCT008 BKN020 FEW023CB OVC070 BECMG 0818/0820 2500 +RA BKN008 SCT023CB TEMPO 0905/0907 10004KT 1000 BR OVC003 TX33/0819Z TM22/0908Z

I. Às 2020Z, a visibilidade predominante prevista é de 4.500 m restrita por chuva forte.

II. Às 2100Z, é prevista a ocorrência de céu nublado a 800 pés de altura.

III. A condição de visibilidade predominante de 2.500 m é prevista permanecer inalterada até o término do período de validez do TAF.

IV. Às 0100Z, é prevista a ocorrência de pancada de chuva forte.

V. A nebulosidade prevista às 0800Z é BKN008 SCT023CB OVC070.

Assinale:


spinner
Ocorreu um erro na requisição, tente executar a operação novamente.